Terminal Aerodrome Forecast
Issued by NWS Twin Cities, MN

Home | Current Version | Previous Version | Text Only | Print | Product List | Glossary On
Versions: 1 2 3 4 5 6 7 8 9 10 11 12 13 14 15 16 17 18 19 20 21 22 23 24 25 26
000
FTUS43 KMPX 261400 AAA
TAFSTC
TAF AMD
KSTC 261400Z 2614/2712 33008KT 5SM BR BKN005 OVC013
      TEMPO 2614/2616 1 1/2SM -DZ BR OVC005
     FM261600 31008KT P6SM SCT006 OVC009
     FM261900 28013G20KT P6SM SCT009 OVC015
     FM262100 29014G21KT P6SM BKN025
     FM270500 29007KT P6SM SCT025=

USA.gov is the U.S. government's official web portal to all federal, state and local government web resources and services.